createdAt,value
2018-04-18T00:01:27.613Z,78.50
2018-04-18T00:03:57.572Z,78.50
2018-04-18T00:06:27.569Z,78.50
2018-04-18T00:08:56.626Z,78.80
2018-04-18T00:11:26.839Z,78.50
2018-04-18T00:13:57.489Z,78.50
2018-04-18T00:16:25.816Z,78.70
2018-04-18T00:18:55.116Z,79.00
2018-04-18T00:21:24.165Z,79.00
2018-04-18T00:23:52.469Z,79.10
2018-04-18T00:26:20.819Z,79.20
2018-04-18T00:28:49.121Z,79.30
2018-04-18T00:31:17.440Z,79.60
2018-04-18T00:33:45.737Z,80.00
2018-04-18T00:36:13.304Z,79.90
2018-04-18T00:38:41.613Z,79.90
2018-04-18T00:41:09.939Z,80.10
2018-04-18T00:43:38.245Z,80.00
2018-04-18T00:46:06.573Z,79.90
2018-04-18T00:48:34.877Z,80.10
2018-04-18T00:51:03.202Z,80.10
2018-04-18T00:53:31.516Z,80.20
2018-04-18T00:55:59.841Z,80.10
2018-04-18T00:58:28.147Z,80.70
2018-04-18T01:00:57.585Z,80.50
2018-04-18T01:03:26.660Z,80.40
2018-04-18T01:05:57.376Z,80.40
2018-04-18T01:08:25.689Z,80.60
2018-04-18T01:10:54.944Z,81.60
2018-04-18T01:13:23.754Z,80.80
2018-04-18T01:15:52.080Z,80.80
2018-04-18T01:18:20.384Z,80.70
2018-04-18T01:20:48.725Z,80.80
2018-04-18T01:23:17.041Z,81.10
2018-04-18T01:25:45.376Z,81.40
2018-04-18T01:28:13.691Z,81.50
2018-04-18T01:30:42.029Z,81.40
2018-04-18T01:33:10.344Z,81.30
2018-04-18T01:35:38.675Z,81.50
2018-04-18T01:38:06.977Z,81.60
2018-04-18T01:40:35.317Z,81.50
2018-04-18T01:43:03.629Z,81.50
2018-04-18T01:45:31.950Z,81.50
2018-04-18T01:48:00.268Z,81.70
2018-04-18T01:50:28.592Z,81.90
2018-04-18T01:52:57.915Z,82.00
2018-04-18T01:55:26.284Z,81.90
2018-04-18T01:57:57.621Z,81.90
2018-04-18T02:00:26.742Z,81.90
2018-04-18T02:02:56.784Z,82.00
2018-04-18T02:05:27.081Z,82.00
2018-04-18T02:07:55.400Z,82.00
2018-04-18T02:10:23.757Z,82.10
2018-04-18T02:12:52.053Z,82.10
2018-04-18T02:15:20.392Z,82.30
2018-04-18T02:17:48.704Z,82.40
2018-04-18T02:20:17.033Z,82.70
2018-04-18T02:22:45.339Z,82.90
2018-04-18T02:25:12.909Z,82.80
2018-04-18T02:27:41.222Z,82.80
2018-04-18T02:30:09.603Z,82.80
2018-04-18T02:32:37.946Z,82.80
2018-04-18T02:35:06.274Z,82.60
2018-04-18T02:37:34.575Z,82.60
2018-04-18T02:40:02.914Z,82.50
2018-04-18T02:42:31.217Z,82.50
2018-04-18T02:44:59.552Z,82.50
2018-04-18T02:47:29.115Z,82.50
2018-04-18T02:49:58.728Z,82.60
2018-04-18T02:52:28.073Z,82.70
2018-04-18T02:54:57.872Z,83.10
2018-04-18T02:57:26.201Z,83.30
2018-04-18T02:59:55.501Z,83.60
2018-04-18T03:02:24.877Z,83.60
2018-04-18T03:04:53.780Z,83.80
2018-04-18T03:07:22.129Z,83.80
2018-04-18T03:09:50.444Z,83.70
2018-04-18T03:12:18.768Z,83.70
2018-04-18T03:14:47.081Z,83.90
2018-04-18T03:17:15.414Z,84.10
2018-04-18T03:19:43.716Z,84.20
2018-04-18T03:22:12.045Z,84.30
2018-04-18T03:24:40.353Z,84.50
2018-04-18T03:27:08.686Z,84.70
2018-04-18T03:29:36.993Z,85.10
2018-04-18T03:32:05.329Z,85.30
2018-04-18T03:34:33.645Z,85.30
2018-04-18T03:37:01.973Z,85.10
2018-04-18T03:39:30.283Z,85.10
2018-04-18T03:41:58.613Z,85.10
2018-04-18T03:44:26.185Z,85.10
2018-04-18T03:46:55.660Z,84.80
2018-04-18T03:49:24.189Z,84.80
2018-04-18T03:51:52.529Z,85.00
2018-04-18T03:54:20.841Z,85.00
2018-04-18T03:56:49.172Z,85.00
2018-04-18T03:59:17.490Z,85.10
2018-04-18T04:01:45.826Z,85.20
2018-04-18T04:04:14.148Z,85.20
2018-04-18T04:06:42.474Z,85.00
2018-04-18T04:09:10.788Z,85.10
2018-04-18T04:11:39.116Z,85.10
2018-04-18T04:14:07.420Z,85.30
2018-04-18T04:16:47.562Z,85.70
2018-04-18T04:19:27.725Z,86.30
2018-04-18T04:22:07.994Z,86.40
2018-04-18T04:24:39.721Z,86.40
2018-04-18T04:27:08.059Z,86.10
2018-04-18T04:29:36.381Z,86.10
2018-04-18T04:32:04.712Z,86.10
2018-04-18T04:34:33.023Z,86.90
2018-04-18T04:37:01.369Z,86.10
2018-04-18T04:39:29.688Z,86.10
2018-04-18T04:41:59.344Z,86.10
2018-04-18T04:44:28.861Z,86.00
2018-04-18T04:46:57.196Z,85.80
2018-04-18T04:49:25.521Z,86.00
2018-04-18T04:51:54.737Z,86.10
2018-04-18T04:54:23.741Z,85.70
2018-04-18T04:56:52.076Z,85.60
2018-04-18T04:59:20.388Z,85.90
2018-04-18T05:01:48.727Z,86.00
2018-04-18T05:04:17.045Z,86.10
2018-04-18T05:06:45.388Z,86.90
2018-04-18T05:09:13.713Z,85.60
2018-04-18T05:11:42.038Z,84.40
2018-04-18T05:14:10.346Z,83.20
2018-04-18T05:16:38.690Z,81.80
2018-04-18T05:19:06.992Z,80.70
2018-04-18T05:21:35.320Z,79.40
2018-04-18T05:24:03.637Z,78.30
2018-04-18T05:26:31.979Z,78.10
2018-04-18T05:29:00.288Z,78.00
2018-04-18T05:31:28.612Z,78.00
2018-04-18T05:33:57.431Z,77.90
2018-04-18T05:36:25.285Z,77.90
2018-04-18T05:38:54.700Z,77.80
2018-04-18T05:41:24.147Z,77.70
2018-04-18T05:43:52.444Z,77.50
2018-04-18T05:46:20.754Z,77.30
2018-04-18T05:48:49.086Z,77.00
2018-04-18T05:51:17.381Z,76.70
2018-04-18T05:53:45.706Z,76.40
2018-04-18T05:56:14.013Z,76.10
2018-04-18T05:58:42.336Z,75.80
2018-04-18T06:01:10.642Z,75.40
2018-04-18T06:03:38.968Z,74.90
2018-04-18T06:06:07.281Z,74.60
2018-04-18T06:08:35.612Z,74.30
2018-04-18T06:11:03.912Z,73.80
2018-04-18T06:13:32.237Z,73.30
2018-04-18T06:16:00.542Z,72.90
2018-04-18T06:18:28.860Z,72.40
2018-04-18T06:20:57.160Z,71.90
2018-04-18T06:23:25.492Z,71.50
2018-04-18T06:25:54.553Z,70.70
2018-04-18T06:28:22.876Z,69.40
2018-04-18T06:30:51.197Z,68.80
2018-04-18T06:33:19.528Z,68.60
2018-04-18T06:35:47.845Z,68.30
2018-04-18T06:38:16.177Z,68.20
2018-04-18T06:40:44.489Z,67.90
2018-04-18T06:43:12.814Z,67.30
2018-04-18T06:45:41.121Z,66.70
2018-04-18T06:48:09.456Z,66.20
2018-04-18T06:50:37.761Z,65.80
2018-04-18T06:53:06.080Z,65.50
2018-04-18T06:55:34.388Z,65.00
2018-04-18T06:58:02.712Z,64.60
2018-04-18T07:00:31.008Z,63.90
2018-04-18T07:02:59.341Z,63.40
2018-04-18T07:05:28.921Z,62.90
2018-04-18T07:07:57.244Z,62.40
2018-04-18T07:10:26.177Z,61.30
2018-04-18T07:12:55.448Z,60.20
2018-04-18T07:15:23.825Z,59.60
2018-04-18T07:17:52.157Z,59.20
2018-04-18T07:20:20.472Z,58.60
2018-04-18T07:22:48.796Z,58.50
2018-04-18T07:25:17.113Z,58.30
2018-04-18T07:27:45.448Z,58.10
2018-04-18T07:30:13.760Z,57.80
2018-04-18T07:32:42.088Z,57.40
2018-04-18T07:35:10.397Z,56.70
2018-04-18T07:37:38.720Z,56.20
2018-04-18T07:40:07.078Z,55.80
2018-04-18T07:42:35.374Z,55.20
2018-04-18T07:45:03.693Z,55.00
2018-04-18T07:47:32.024Z,55.00
2018-04-18T07:50:00.336Z,54.30
2018-04-18T07:52:28.669Z,53.40
2018-04-18T07:54:57.892Z,53.60
2018-04-18T07:57:26.229Z,53.40
2018-04-18T07:59:55.580Z,52.80
2018-04-18T08:02:24.864Z,52.60
2018-04-18T08:04:53.837Z,52.10
2018-04-18T08:07:22.146Z,51.70
2018-04-18T08:09:50.489Z,51.20
2018-04-18T08:12:18.793Z,50.80
2018-04-18T08:14:47.116Z,51.20
2018-04-18T08:17:15.416Z,51.30
2018-04-18T08:19:43.737Z,50.70
2018-04-18T08:22:12.067Z,49.60
2018-04-18T08:24:40.400Z,49.00
2018-04-18T08:27:08.702Z,48.30
2018-04-18T08:29:37.022Z,47.60
2018-04-18T08:32:05.372Z,47.00
2018-04-18T08:34:33.692Z,46.80
2018-04-18T08:37:01.996Z,46.00
2018-04-18T08:39:30.331Z,44.70
2018-04-18T08:41:58.632Z,44.10
2018-04-18T08:44:27.959Z,44.20
2018-04-18T08:46:56.654Z,43.80
2018-04-18T08:49:25.704Z,42.60
2018-04-18T08:51:55.001Z,40.80
2018-04-18T08:54:23.829Z,40.80
2018-04-18T08:56:52.137Z,40.70
2018-04-18T08:59:20.470Z,39.60
2018-04-18T09:01:48.781Z,38.70
2018-04-18T09:04:17.112Z,39.30
2018-04-18T09:06:45.421Z,38.40
2018-04-18T09:09:13.752Z,37.40
2018-04-18T09:11:42.053Z,37.00
2018-04-18T09:14:10.452Z,37.10
2018-04-18T09:16:38.753Z,36.90
2018-04-18T09:19:07.077Z,37.20
2018-04-18T09:21:35.384Z,38.00
2018-04-18T09:24:03.717Z,37.40
2018-04-18T09:26:32.028Z,36.40
2018-04-18T09:29:00.364Z,35.50
2018-04-18T09:31:28.672Z,35.30
2018-04-18T09:33:58.040Z,36.00
2018-04-18T09:36:27.512Z,35.80
2018-04-18T09:38:57.475Z,35.40
2018-04-18T09:41:25.781Z,34.60
2018-04-18T09:43:55.165Z,34.50
2018-04-18T09:46:24.112Z,33.00
2018-04-18T09:48:52.463Z,32.40
2018-04-18T09:51:20.773Z,32.50
2018-04-18T09:53:49.106Z,32.70
2018-04-18T09:56:17.413Z,31.40
2018-04-18T09:58:45.737Z,31.20
2018-04-18T10:01:19.860Z,30.80
2018-04-18T10:03:54.693Z,30.20
2018-04-18T10:06:22.992Z,29.40
2018-04-18T10:08:51.811Z,29.70
2018-04-18T10:11:19.672Z,30.10
2018-04-18T10:13:48.010Z,30.30
2018-04-18T10:16:16.331Z,30.60
2018-04-18T10:18:44.252Z,31.10
2018-04-18T10:21:12.224Z,29.60
2018-04-18T10:23:40.114Z,29.30
2018-04-18T10:26:07.953Z,28.90
2018-04-18T10:28:35.880Z,29.20
2018-04-18T10:31:03.791Z,28.60
2018-04-18T10:33:31.794Z,28.70
2018-04-18T10:35:59.792Z,28.40
2018-04-18T10:38:28.448Z,27.40
2018-04-18T10:40:57.399Z,28.40
2018-04-18T10:43:25.262Z,28.70
2018-04-18T10:45:54.661Z,28.90
2018-04-18T10:48:22.504Z,28.80
2018-04-18T10:50:50.830Z,26.70
2018-04-18T10:53:19.148Z,26.30
2018-04-18T10:55:47.470Z,26.80
2018-04-18T10:58:15.307Z,26.90
2018-04-18T11:00:43.173Z,26.30
2018-04-18T11:03:11.373Z,26.00
2018-04-18T11:05:40.248Z,26.30
2018-04-18T11:08:08.298Z,26.60
2018-04-18T11:10:36.220Z,26.50
2018-04-18T11:13:04.540Z,27.20
2018-04-18T11:15:32.917Z,27.40
2018-04-18T11:18:00.854Z,26.90
2018-04-18T11:20:28.859Z,27.60
2018-04-18T11:22:58.273Z,27.70
2018-04-18T11:25:26.410Z,27.60
2018-04-18T11:27:54.245Z,27.00
2018-04-18T11:30:22.565Z,25.10
2018-04-18T11:32:50.860Z,25.70
2018-04-18T11:35:19.197Z,26.00
2018-04-18T11:37:47.045Z,25.70
2018-04-18T11:40:14.912Z,25.80
2018-04-18T11:42:43.217Z,26.20
2018-04-18T11:45:11.253Z,25.60
2018-04-18T11:47:39.553Z,24.90
2018-04-18T11:50:06.665Z,24.90
2018-04-18T11:52:34.503Z,25.20
2018-04-18T11:55:02.456Z,24.70
2018-04-18T11:57:30.384Z,24.30
2018-04-18T11:59:58.475Z,23.30
2018-04-18T12:02:27.936Z,22.70
2018-04-18T12:04:55.820Z,22.20
2018-04-18T12:07:23.770Z,22.30
2018-04-18T12:09:51.639Z,23.00
2018-04-18T12:12:19.942Z,23.00
2018-04-18T12:14:47.800Z,23.30
2018-04-18T12:17:15.638Z,23.60
2018-04-18T12:19:43.505Z,23.20
2018-04-18T12:22:11.356Z,23.20
2018-04-18T12:24:39.681Z,23.50
2018-04-18T12:27:07.524Z,22.90
2018-04-18T12:29:35.396Z,22.30
2018-04-18T12:32:03.250Z,21.90
2018-04-18T12:34:31.829Z,22.40
2018-04-18T12:37:00.268Z,22.80
2018-04-18T12:39:28.637Z,23.00
2018-04-18T12:41:58.049Z,23.50
2018-04-18T12:44:27.403Z,24.20
2018-04-18T12:46:55.712Z,24.20
2018-04-18T12:49:25.085Z,23.70
2018-04-18T12:51:53.789Z,23.80
2018-04-18T12:54:22.342Z,24.40
2018-04-18T12:56:50.801Z,24.90
2018-04-18T12:59:19.127Z,24.90
2018-04-18T13:01:47.456Z,24.80
2018-04-18T13:04:15.770Z,25.30
2018-04-18T13:06:44.094Z,24.40
2018-04-18T13:09:12.012Z,23.90
2018-04-18T13:11:40.337Z,24.60
2018-04-18T13:14:08.636Z,24.80
2018-04-18T13:16:36.957Z,25.00
2018-04-18T13:19:05.260Z,23.60
2018-04-18T13:21:33.628Z,23.90
2018-04-18T13:24:02.018Z,24.40
2018-04-18T13:26:30.352Z,24.50
2018-04-18T13:28:58.669Z,24.40
2018-04-18T13:31:28.270Z,24.70
2018-04-18T13:33:58.003Z,25.50
2018-04-18T13:36:27.796Z,24.80
2018-04-18T13:38:56.155Z,23.80
2018-04-18T13:41:31.915Z,24.00
2018-04-18T13:44:01.378Z,23.50
2018-04-18T13:46:29.294Z,23.50
2018-04-18T13:49:02.872Z,23.40
2018-04-18T13:51:41.687Z,23.40
2018-04-18T13:54:11.386Z,23.20
2018-04-18T13:56:39.893Z,23.50
2018-04-18T13:59:15.375Z,23.70
2018-04-18T14:01:43.957Z,22.70
2018-04-18T14:04:12.352Z,22.40
2018-04-18T14:06:40.860Z,22.70
2018-04-18T14:09:09.381Z,23.60
2018-04-18T14:11:37.890Z,24.50
2018-04-18T14:14:06.191Z,23.10
2018-04-18T14:16:34.531Z,22.50
2018-04-18T14:19:02.896Z,22.50
2018-04-18T14:21:31.251Z,22.90
2018-04-18T14:23:59.580Z,22.30
2018-04-18T14:26:29.297Z,22.50
2018-04-18T14:28:59.066Z,22.20
2018-04-18T14:31:28.993Z,22.40
2018-04-18T14:33:57.977Z,22.60
2018-04-18T14:36:27.423Z,21.20
2018-04-18T14:38:55.720Z,21.10
2018-04-18T14:41:25.033Z,19.40
2018-04-18T14:43:53.844Z,20.70
2018-04-18T14:46:22.169Z,21.10
2018-04-18T14:48:50.468Z,21.40
2018-04-18T14:51:18.797Z,17.80
2018-04-18T14:53:47.096Z,18.10
2018-04-18T14:56:15.421Z,19.00
2018-04-18T14:58:43.728Z,21.20
2018-04-18T15:01:12.055Z,21.30
2018-04-18T15:03:40.369Z,22.20
2018-04-18T15:06:08.698Z,22.40
2018-04-18T15:08:36.997Z,22.90
2018-04-18T15:11:05.320Z,23.50
2018-04-18T15:13:33.628Z,23.40
2018-04-18T15:16:01.955Z,24.40
2018-04-18T15:18:30.254Z,23.30
2018-04-18T15:20:58.574Z,22.90
2018-04-18T15:23:27.816Z,22.30
2018-04-18T15:25:56.242Z,21.90
2018-04-18T15:28:25.615Z,21.80
2018-04-18T15:30:54.988Z,22.30
2018-04-18T15:33:23.804Z,22.70
2018-04-18T15:35:52.129Z,23.20
2018-04-18T15:38:20.439Z,23.90
2018-04-18T15:40:48.768Z,23.80
2018-04-18T15:43:17.073Z,22.20
2018-04-18T15:45:45.401Z,23.00
2018-04-18T15:48:13.713Z,23.70
2018-04-18T15:50:42.057Z,24.30
2018-04-18T15:53:10.366Z,24.70
2018-04-18T15:55:38.701Z,24.40
2018-04-18T15:58:07.013Z,25.00
2018-04-18T16:00:35.336Z,25.00
2018-04-18T16:03:03.648Z,24.90
2018-04-18T16:05:31.952Z,23.80
2018-04-18T16:08:00.284Z,24.30
2018-04-18T16:10:29.002Z,24.40
2018-04-18T16:12:57.937Z,25.20
2018-04-18T16:15:26.242Z,24.80
2018-04-18T16:17:55.153Z,24.40
2018-04-18T16:20:23.853Z,24.70
2018-04-18T16:22:52.185Z,24.80
2018-04-18T16:25:20.500Z,24.80
2018-04-18T16:27:48.824Z,25.10
2018-04-18T16:30:39.568Z,25.20
2018-04-18T16:33:07.880Z,25.10
2018-04-18T16:35:36.186Z,25.50
2018-04-18T16:38:04.508Z,26.20
2018-04-18T16:40:32.855Z,26.30
2018-04-18T16:43:01.170Z,26.40
2018-04-18T16:45:29.468Z,26.70
2018-04-18T16:47:58.760Z,27.20
2018-04-18T16:50:27.073Z,27.50
2018-04-18T16:52:55.400Z,27.80
2018-04-18T16:55:24.687Z,28.00
2018-04-18T16:57:53.021Z,27.80
2018-04-18T17:00:21.333Z,27.90
2018-04-18T17:02:49.656Z,28.40
2018-04-18T17:05:17.956Z,28.30
2018-04-18T17:07:46.289Z,28.10
2018-04-18T17:10:14.596Z,27.60
2018-04-18T17:12:42.915Z,26.90
2018-04-18T17:15:12.265Z,26.40
2018-04-18T17:17:40.593Z,25.90
2018-04-18T17:20:08.908Z,25.70
2018-04-18T17:22:37.233Z,25.50
2018-04-18T17:25:05.536Z,25.40
2018-04-18T17:27:33.864Z,25.30
2018-04-18T17:30:02.174Z,25.80
2018-04-18T17:32:30.500Z,25.70
2018-04-18T17:34:58.804Z,25.20
2018-04-18T17:37:27.129Z,25.20
2018-04-18T17:39:55.437Z,25.40
2018-04-18T17:42:23.818Z,25.20
2018-04-18T17:44:52.132Z,25.10
2018-04-18T17:47:20.453Z,25.30
2018-04-18T17:49:48.760Z,25.80
2018-04-18T17:52:17.093Z,26.60
2018-04-18T17:54:45.397Z,27.40
2018-04-18T17:57:13.726Z,28.40
2018-04-18T17:59:42.045Z,29.70
2018-04-18T18:02:10.380Z,31.20
2018-04-18T18:04:38.684Z,32.70
2018-04-18T18:07:07.014Z,33.80
2018-04-18T18:09:35.321Z,34.40
2018-04-18T18:12:03.653Z,35.50
2018-04-18T18:14:31.951Z,36.60
2018-04-18T18:17:00.279Z,37.20
2018-04-18T18:19:28.608Z,37.70
2018-04-18T18:21:57.800Z,38.70
2018-04-18T18:24:26.156Z,39.30
2018-04-18T18:26:54.500Z,39.90
2018-04-18T18:29:22.832Z,40.50
2018-04-18T18:31:51.147Z,41.00
2018-04-18T18:34:19.546Z,41.50
2018-04-18T18:36:47.922Z,42.10
2018-04-18T18:39:16.276Z,42.40
2018-04-18T18:41:44.672Z,42.70
2018-04-18T18:44:12.972Z,43.40
2018-04-18T18:46:41.303Z,44.10
2018-04-18T18:49:09.605Z,44.60
2018-04-18T18:51:37.940Z,45.00
2018-04-18T18:54:06.248Z,45.10
2018-04-18T18:56:34.584Z,45.60
2018-04-18T18:59:02.891Z,46.20
2018-04-18T19:01:31.235Z,46.70
2018-04-18T19:03:59.542Z,47.10
2018-04-18T19:06:29.226Z,47.70
2018-04-18T19:08:58.796Z,48.10
2018-04-18T19:11:27.160Z,48.50
2018-04-18T19:13:55.477Z,48.90
2018-04-18T19:16:23.838Z,49.30
2018-04-18T19:18:52.135Z,49.60
2018-04-18T19:21:20.474Z,49.90
2018-04-18T19:23:48.821Z,50.40
2018-04-18T19:26:17.149Z,50.80
2018-04-18T19:28:45.455Z,51.00
2018-04-18T19:31:13.797Z,51.30
2018-04-18T19:33:42.106Z,51.70
2018-04-18T19:36:10.004Z,52.30
2018-04-18T19:38:38.040Z,52.70
2018-04-18T19:41:05.924Z,53.00
2018-04-18T19:43:33.768Z,54.00
2018-04-18T19:46:02.105Z,54.00
2018-04-18T19:48:30.409Z,54.30
2018-04-18T19:50:58.325Z,54.20
2018-04-18T19:53:27.236Z,54.70
2018-04-18T19:55:55.572Z,54.90
2018-04-18T19:58:24.712Z,55.20
2018-04-18T20:00:53.775Z,55.50
2018-04-18T20:03:22.077Z,55.70
2018-04-18T20:05:50.404Z,55.90
2018-04-18T20:08:18.700Z,56.20
2018-04-18T20:10:47.048Z,56.60
2018-04-18T20:13:15.377Z,56.70
2018-04-18T20:15:43.717Z,57.10
2018-04-18T20:18:12.034Z,57.40
2018-04-18T20:20:40.360Z,57.60
2018-04-18T20:23:08.656Z,58.00
2018-04-18T20:25:36.999Z,58.10
2018-04-18T20:28:05.324Z,58.20
2018-04-18T20:30:33.665Z,58.20
2018-04-18T20:33:01.968Z,58.40
2018-04-18T20:35:30.304Z,58.50
2018-04-18T20:37:58.604Z,58.70
2018-04-18T20:40:27.831Z,59.10
2018-04-18T20:42:59.512Z,59.30
2018-04-18T20:45:29.189Z,59.60
2018-04-18T20:47:58.821Z,60.00
2018-04-18T20:50:27.133Z,60.30
2018-04-18T20:52:55.472Z,60.60
2018-04-18T20:55:23.848Z,61.10
2018-04-18T20:57:52.196Z,61.60
2018-04-18T21:00:20.505Z,62.00
2018-04-18T21:02:48.841Z,62.50
2018-04-18T21:05:17.206Z,62.70
2018-04-18T21:07:45.517Z,63.00
2018-04-18T21:10:13.819Z,63.30
2018-04-18T21:12:42.157Z,63.70
2018-04-18T21:15:10.464Z,64.10
2018-04-18T21:17:38.800Z,64.50
2018-04-18T21:20:07.113Z,65.00
2018-04-18T21:22:35.458Z,65.50
2018-04-18T21:25:03.773Z,65.70
2018-04-18T21:27:32.111Z,66.00
2018-04-18T21:30:00.424Z,66.20
2018-04-18T21:32:28.770Z,66.80
2018-04-18T21:34:57.087Z,66.30
2018-04-18T21:37:26.624Z,66.40
2018-04-18T21:39:56.296Z,66.60
2018-04-18T21:42:25.325Z,66.70
2018-04-18T21:44:54.508Z,66.90
2018-04-18T21:47:22.847Z,67.20
2018-04-18T21:49:51.160Z,67.20
2018-04-18T21:52:19.504Z,67.40
2018-04-18T21:54:47.809Z,67.80
2018-04-18T21:57:16.153Z,68.20
2018-04-18T21:59:44.479Z,68.70
2018-04-18T22:02:12.811Z,69.20
2018-04-18T22:04:41.122Z,69.60
2018-04-18T22:07:09.460Z,69.80
2018-04-18T22:09:37.777Z,69.90
2018-04-18T22:12:06.117Z,70.20
2018-04-18T22:14:34.426Z,70.50
2018-04-18T22:17:02.783Z,70.80
2018-04-18T22:19:31.104Z,71.00
2018-04-18T22:21:59.453Z,71.20
2018-04-18T22:24:28.968Z,71.10
2018-04-18T22:26:58.348Z,71.10
2018-04-18T22:29:27.913Z,71.10
2018-04-18T22:31:56.252Z,71.60
2018-04-18T22:34:25.165Z,71.70
2018-04-18T22:36:53.513Z,72.00
2018-04-18T22:39:21.828Z,72.10
2018-04-18T22:41:50.169Z,72.10
2018-04-18T22:44:18.484Z,72.30
2018-04-18T22:46:46.820Z,72.40
2018-04-18T22:49:15.130Z,72.40
2018-04-18T22:51:43.445Z,72.20
2018-04-18T22:54:11.785Z,72.30
2018-04-18T22:56:40.093Z,72.30
2018-04-18T22:59:08.432Z,72.40
2018-04-18T23:01:36.736Z,72.40
2018-04-18T23:04:05.074Z,72.20
2018-04-18T23:06:33.401Z,72.30
2018-04-18T23:09:01.745Z,72.40
2018-04-18T23:11:30.060Z,72.50
2018-04-18T23:13:58.395Z,72.70
2018-04-18T23:16:27.741Z,72.80
2018-04-18T23:18:56.737Z,72.80
2018-04-18T23:21:26.181Z,72.80
2018-04-18T23:23:54.904Z,72.80
2018-04-18T23:26:23.799Z,72.80
2018-04-18T23:28:52.133Z,72.90
2018-04-18T23:31:20.444Z,73.00
2018-04-18T23:36:22.967Z,72.90
2018-04-18T23:38:50.844Z,73.20
2018-04-18T23:41:18.684Z,73.50
2018-04-18T23:43:47.030Z,73.90
2018-04-18T23:46:14.882Z,74.30
2018-04-18T23:48:42.752Z,74.80
2018-04-18T23:51:11.068Z,75.00
2018-04-18T23:53:39.405Z,75.10
2018-04-18T23:56:07.728Z,75.30
2018-04-18T23:58:36.147Z,75.40
